createdAt,value
2017-09-14T00:00:07.751Z,1.57
2017-09-14T00:02:42.385Z,1.60
2017-09-14T00:05:16.902Z,1.90
2017-09-14T00:07:52.215Z,1.90
2017-09-14T00:10:27.111Z,2.50
2017-09-14T00:13:01.871Z,1.63
2017-09-14T00:15:36.477Z,1.70
2017-09-14T00:18:11.811Z,1.90
2017-09-14T00:20:46.266Z,2.30
2017-09-14T00:23:21.037Z,1.53
2017-09-14T00:25:55.739Z,2.10
2017-09-14T00:28:30.491Z,2.53
2017-09-14T00:31:05.053Z,1.70
2017-09-14T00:33:39.735Z,2.03
2017-09-14T00:36:14.315Z,1.40
2017-09-14T00:38:48.763Z,2.50
2017-09-14T00:41:23.318Z,1.60
2017-09-14T00:43:57.787Z,2.00
2017-09-14T00:46:32.007Z,1.67
2017-09-14T00:49:06.632Z,1.50
2017-09-14T00:51:40.423Z,1.97
2017-09-14T00:54:14.904Z,1.67
2017-09-14T00:56:49.153Z,1.73
2017-09-14T00:59:23.782Z,1.80
2017-09-14T01:01:58.341Z,1.60
2017-09-14T01:04:32.899Z,2.10
2017-09-14T01:07:07.558Z,1.80
2017-09-14T01:09:42.228Z,2.03
2017-09-14T01:12:16.855Z,2.50
2017-09-14T01:14:51.507Z,2.07
2017-09-14T01:17:25.802Z,1.27
2017-09-14T01:20:00.103Z,2.03
2017-09-14T01:22:34.587Z,1.70
2017-09-14T01:25:15.350Z,2.00
2017-09-14T01:27:49.254Z,2.00
2017-09-14T01:30:23.873Z,2.00
2017-09-14T01:32:57.882Z,2.40
2017-09-14T01:35:32.571Z,1.77
2017-09-14T01:38:06.397Z,1.90
2017-09-14T01:40:40.294Z,1.97
2017-09-14T01:43:14.858Z,1.83
2017-09-14T01:45:49.401Z,2.03
2017-09-14T01:48:24.758Z,1.70
2017-09-14T01:50:59.254Z,2.20
2017-09-14T01:53:33.706Z,1.43
2017-09-14T01:56:08.286Z,1.80
2017-09-14T01:58:42.995Z,2.03
2017-09-14T02:01:17.575Z,1.80
2017-09-14T02:03:52.269Z,1.50
2017-09-14T02:06:26.839Z,1.47
2017-09-14T02:09:01.359Z,1.83
2017-09-14T02:11:36.702Z,1.23
2017-09-14T02:14:11.398Z,1.67
2017-09-14T02:16:45.918Z,1.73
2017-09-14T02:19:20.453Z,1.67
2017-09-14T02:21:54.987Z,1.50
2017-09-14T02:24:29.413Z,1.73
2017-09-14T02:27:03.934Z,2.20
2017-09-14T02:29:38.587Z,1.70
2017-09-14T02:32:13.310Z,1.77
2017-09-14T02:34:47.794Z,1.90
2017-09-14T02:37:22.155Z,1.63
2017-09-14T02:39:56.685Z,1.70
2017-09-14T02:42:31.218Z,1.40
2017-09-14T02:45:13.826Z,1.47
2017-09-14T02:47:48.410Z,1.77
2017-09-14T02:50:22.966Z,2.10
2017-09-14T02:52:57.304Z,2.17
2017-09-14T02:55:31.849Z,2.47
2017-09-14T02:58:06.487Z,1.50
2017-09-14T03:00:41.163Z,1.03
2017-09-14T03:03:15.983Z,1.37
2017-09-14T03:05:50.550Z,1.77
2017-09-14T03:08:25.082Z,1.93
2017-09-14T03:10:59.662Z,2.00
2017-09-14T03:13:34.304Z,1.43
2017-09-14T03:16:08.865Z,1.37
2017-09-14T03:18:43.382Z,1.60
2017-09-14T03:21:17.983Z,1.70
2017-09-14T03:23:52.478Z,1.90
2017-09-14T03:26:27.036Z,1.40
2017-09-14T03:29:01.726Z,1.97
2017-09-14T03:31:37.071Z,1.60
2017-09-14T03:34:11.645Z,1.83
2017-09-14T03:36:47.042Z,1.80
2017-09-14T03:39:21.501Z,1.57
2017-09-14T03:41:56.086Z,1.70
2017-09-14T03:44:30.706Z,1.67
2017-09-14T03:47:06.058Z,1.33
2017-09-14T03:49:40.498Z,1.93
2017-09-14T03:52:15.090Z,1.67
2017-09-14T03:54:49.617Z,2.17
2017-09-14T03:57:24.160Z,2.10
2017-09-14T03:59:58.450Z,2.97
2017-09-14T04:02:33.018Z,1.97
2017-09-14T04:05:15.298Z,1.83
2017-09-14T04:07:49.827Z,1.70
2017-09-14T04:10:24.463Z,2.47
2017-09-14T04:12:59.128Z,1.90
2017-09-14T04:15:33.811Z,2.20
2017-09-14T04:18:08.325Z,2.87
2017-09-14T04:20:42.975Z,2.07
2017-09-14T04:23:17.613Z,2.90
2017-09-14T04:25:51.963Z,2.30
2017-09-14T04:28:26.426Z,3.20
2017-09-14T04:31:01.034Z,2.33
2017-09-14T04:33:36.382Z,2.00
2017-09-14T04:36:11.002Z,2.43
2017-09-14T04:38:45.899Z,2.53
2017-09-14T04:41:20.730Z,1.90
2017-09-14T04:43:55.329Z,2.60
2017-09-14T04:46:29.827Z,2.90
2017-09-14T04:49:04.578Z,2.77
2017-09-14T04:51:39.055Z,2.33
2017-09-14T04:54:13.426Z,3.40
2017-09-14T04:56:47.831Z,2.47
2017-09-14T04:59:22.318Z,3.30
2017-09-14T05:01:56.986Z,2.60
2017-09-14T05:04:31.554Z,3.00
2017-09-14T05:07:06.122Z,2.83
2017-09-14T05:09:40.795Z,2.40
2017-09-14T05:12:15.327Z,3.37
2017-09-14T05:14:50.769Z,4.40
2017-09-14T05:17:25.595Z,4.30
2017-09-14T05:20:00.088Z,3.60
2017-09-14T05:22:35.205Z,3.60
2017-09-14T05:25:16.719Z,6.83
2017-09-14T05:27:51.468Z,5.50
2017-09-14T05:30:25.747Z,6.27
2017-09-14T05:33:00.419Z,3.77
2017-09-14T05:35:34.832Z,4.00
2017-09-14T05:38:09.534Z,5.47
2017-09-14T05:40:44.066Z,4.13
2017-09-14T05:43:18.747Z,4.27
2017-09-14T05:45:53.357Z,3.77
2017-09-14T05:48:28.234Z,4.57
2017-09-14T05:51:02.876Z,4.90
2017-09-14T05:53:37.405Z,3.53
2017-09-14T05:56:11.930Z,3.33
2017-09-14T05:58:47.129Z,3.20
2017-09-14T06:01:22.438Z,3.30
2017-09-14T06:03:57.089Z,3.47
2017-09-14T06:06:31.626Z,3.73
2017-09-14T06:09:05.978Z,3.07
2017-09-14T06:11:40.665Z,3.60
2017-09-14T06:14:15.895Z,4.53
2017-09-14T06:16:50.366Z,4.33
2017-09-14T06:19:24.995Z,3.60
2017-09-14T06:21:59.643Z,3.10
2017-09-14T06:24:34.296Z,3.27
2017-09-14T06:27:08.801Z,2.80
2017-09-14T06:29:43.371Z,3.17
2017-09-14T06:32:17.994Z,4.00
2017-09-14T06:34:52.631Z,3.30
2017-09-14T06:37:27.149Z,3.60
2017-09-14T06:40:01.375Z,2.30
2017-09-14T06:42:35.825Z,5.97
2017-09-14T06:45:10.167Z,4.03
2017-09-14T06:47:44.830Z,3.40
2017-09-14T06:50:19.466Z,3.53
2017-09-14T06:52:53.939Z,3.63
2017-09-14T06:55:28.559Z,3.13
2017-09-14T06:58:03.221Z,2.80
2017-09-14T07:00:37.496Z,3.80
2017-09-14T07:03:12.018Z,3.10
2017-09-14T07:05:47.394Z,2.87
2017-09-14T07:08:21.959Z,2.80
2017-09-14T07:10:56.502Z,2.10
2017-09-14T07:13:31.114Z,2.83
2017-09-14T07:16:05.730Z,3.47
2017-09-14T07:18:40.307Z,2.90
2017-09-14T07:21:14.769Z,2.73
2017-09-14T07:23:49.486Z,2.60
2017-09-14T07:26:23.985Z,2.37
2017-09-14T07:28:58.685Z,2.47
2017-09-14T07:31:33.263Z,2.20
2017-09-14T07:34:07.770Z,2.60
2017-09-14T07:36:42.302Z,3.27
2017-09-14T07:39:16.892Z,3.13
2017-09-14T07:41:52.260Z,3.40
2017-09-14T07:44:26.862Z,1.90
2017-09-14T07:47:01.482Z,2.70
2017-09-14T07:49:36.774Z,2.30
2017-09-14T07:52:11.435Z,2.40
2017-09-14T07:54:46.002Z,2.03
2017-09-14T07:57:20.347Z,1.70
2017-09-14T07:59:55.003Z,2.00
2017-09-14T08:02:29.614Z,2.37
2017-09-14T08:05:08.510Z,1.80
2017-09-14T08:07:43.150Z,1.87
2017-09-14T08:10:17.778Z,1.80
2017-09-14T08:12:52.451Z,1.70
2017-09-14T08:15:27.831Z,2.23
2017-09-14T08:18:02.403Z,1.67
2017-09-14T08:20:37.110Z,2.10
2017-09-14T08:23:10.994Z,1.97
2017-09-14T08:25:45.483Z,2.50
2017-09-14T08:28:20.040Z,4.20
2017-09-14T08:30:54.567Z,2.23
2017-09-14T08:33:29.241Z,2.00
2017-09-14T08:36:04.046Z,2.13
2017-09-14T08:38:38.627Z,3.37
2017-09-14T08:41:13.178Z,1.93
2017-09-14T08:43:47.602Z,2.50
2017-09-14T08:46:22.058Z,1.87
2017-09-14T08:48:56.450Z,2.07
2017-09-14T08:51:30.780Z,1.70
2017-09-14T08:54:05.289Z,2.23
2017-09-14T08:56:39.890Z,1.87
2017-09-14T08:59:15.035Z,2.03
2017-09-14T09:01:50.066Z,2.63
2017-09-14T09:04:24.682Z,1.70
2017-09-14T09:06:59.339Z,1.97
2017-09-14T09:09:34.009Z,1.70
2017-09-14T09:12:08.550Z,1.80
2017-09-14T09:14:43.206Z,2.33
2017-09-14T09:17:17.710Z,1.80
2017-09-14T09:19:52.238Z,2.13
2017-09-14T09:22:26.743Z,2.20
2017-09-14T09:25:01.420Z,2.17
2017-09-14T09:27:36.689Z,1.47
2017-09-14T09:30:11.460Z,1.63
2017-09-14T09:32:46.203Z,1.60
2017-09-14T09:35:20.828Z,1.40
2017-09-14T09:37:55.443Z,1.60
2017-09-14T09:40:30.023Z,1.90
2017-09-14T09:43:04.689Z,2.57
2017-09-14T09:45:39.245Z,1.73
2017-09-14T09:48:13.902Z,2.30
2017-09-14T09:50:48.490Z,2.03
2017-09-14T09:53:22.982Z,1.23
2017-09-14T09:55:57.502Z,1.20
2017-09-14T09:58:33.256Z,1.67
2017-09-14T10:01:08.372Z,1.87
2017-09-14T10:03:42.934Z,2.10
2017-09-14T10:06:17.430Z,1.70
2017-09-14T10:08:51.985Z,2.03
2017-09-14T10:11:26.642Z,1.30
2017-09-14T10:14:01.326Z,1.33
2017-09-14T10:16:35.817Z,1.50
2017-09-14T10:19:10.239Z,1.70
2017-09-14T10:21:44.826Z,1.73
2017-09-14T10:24:20.173Z,2.83
2017-09-14T10:26:54.811Z,1.80
2017-09-14T10:29:29.401Z,1.43
2017-09-14T10:32:04.640Z,1.50
2017-09-14T10:34:39.202Z,1.20
2017-09-14T10:37:13.659Z,1.27
2017-09-14T10:39:48.269Z,1.67
2017-09-14T10:42:23.099Z,1.57
2017-09-14T10:44:57.586Z,1.20
2017-09-14T10:47:32.123Z,1.37
2017-09-14T10:50:09.707Z,1.07
2017-09-14T10:52:44.333Z,1.17
2017-09-14T10:55:19.732Z,1.33
2017-09-14T10:57:54.257Z,1.30
2017-09-14T11:00:28.795Z,1.30
2017-09-14T11:03:03.425Z,1.17
2017-09-14T11:05:37.990Z,1.27
2017-09-14T11:08:12.646Z,1.50
2017-09-14T11:10:47.233Z,1.30
2017-09-14T11:13:21.903Z,1.10
2017-09-14T11:15:56.257Z,1.57
2017-09-14T11:18:30.762Z,1.50
2017-09-14T11:21:05.315Z,1.30
2017-09-14T11:23:39.971Z,1.43
2017-09-14T11:26:14.460Z,1.20
2017-09-14T11:28:49.136Z,3.10
2017-09-14T11:31:23.801Z,1.10
2017-09-14T11:33:58.454Z,1.63
2017-09-14T11:36:32.933Z,1.30
2017-09-14T11:39:07.567Z,1.60
2017-09-14T11:41:42.078Z,1.23
2017-09-14T11:44:16.554Z,1.30
2017-09-14T11:46:51.211Z,1.30
2017-09-14T11:49:26.477Z,1.63
2017-09-14T11:52:01.030Z,1.20
2017-09-14T11:54:35.899Z,1.40
2017-09-14T11:57:10.433Z,1.40
2017-09-14T11:59:45.036Z,1.60
2017-09-14T12:02:19.663Z,1.20
2017-09-14T12:04:54.213Z,1.47
2017-09-14T12:07:28.740Z,1.10
2017-09-14T12:12:43.847Z,1.50
2017-09-14T12:15:18.476Z,1.60
2017-09-14T12:17:52.972Z,1.43
2017-09-14T12:20:27.463Z,1.60
2017-09-14T12:23:02.109Z,1.40
2017-09-14T12:25:36.610Z,1.40
2017-09-14T12:28:11.482Z,1.40
2017-09-14T12:30:46.199Z,1.50
2017-09-14T12:33:20.895Z,1.53
2017-09-14T12:35:55.373Z,1.50
2017-09-14T12:38:30.037Z,1.40
2017-09-14T12:41:04.853Z,1.37
2017-09-14T12:43:40.105Z,1.40
2017-09-14T12:46:14.643Z,0.97
2017-09-14T12:48:49.299Z,1.30
2017-09-14T12:51:23.840Z,1.30
2017-09-14T12:53:58.470Z,1.30
2017-09-14T12:56:33.014Z,1.27
2017-09-14T12:59:07.697Z,1.50
2017-09-14T13:01:42.411Z,1.40
2017-09-14T13:04:17.861Z,1.60
2017-09-14T13:06:52.470Z,1.30
2017-09-14T13:09:27.078Z,1.40
2017-09-14T13:12:01.767Z,1.30
2017-09-14T13:14:36.381Z,1.40
2017-09-14T13:17:10.802Z,1.40
2017-09-14T13:19:45.179Z,1.53
2017-09-14T13:22:20.006Z,1.30
2017-09-14T13:24:54.624Z,1.23
2017-09-14T13:27:29.034Z,1.53
2017-09-14T13:30:10.030Z,1.43
2017-09-14T13:32:44.688Z,1.23
2017-09-14T13:35:19.338Z,1.40
2017-09-14T13:37:53.694Z,1.10
2017-09-14T13:40:28.347Z,2.10
2017-09-14T13:43:02.777Z,1.40
2017-09-14T13:45:37.254Z,1.03
2017-09-14T13:48:11.831Z,1.50
2017-09-14T13:50:46.374Z,1.80
2017-09-14T13:53:21.027Z,1.40
2017-09-14T13:55:55.531Z,1.30
2017-09-14T13:58:30.211Z,1.00
2017-09-14T14:01:04.088Z,2.53
2017-09-14T14:03:38.739Z,1.80
2017-09-14T14:06:12.999Z,1.50
2017-09-14T14:08:47.559Z,1.10
2017-09-14T14:11:21.795Z,1.40
2017-09-14T14:13:55.989Z,3.20
2017-09-14T14:16:30.610Z,3.00
2017-09-14T14:19:05.250Z,3.27
2017-09-14T14:21:39.806Z,3.83
2017-09-14T14:24:15.111Z,2.30
2017-09-14T14:26:50.008Z,1.43
2017-09-14T14:29:24.684Z,3.10
2017-09-14T14:31:59.194Z,2.20
2017-09-14T14:34:34.414Z,1.60
2017-09-14T14:37:09.089Z,1.80
2017-09-14T14:39:43.982Z,1.43
2017-09-14T14:42:18.746Z,1.27
2017-09-14T14:44:53.612Z,1.50
2017-09-14T14:47:28.227Z,1.47
2017-09-14T14:50:07.614Z,2.30
2017-09-14T14:52:42.067Z,1.27
2017-09-14T14:55:16.779Z,1.73
2017-09-14T14:57:51.468Z,1.40
2017-09-14T15:00:25.802Z,1.43
2017-09-14T15:03:00.299Z,1.50
2017-09-14T15:05:35.027Z,1.40
2017-09-14T15:08:09.635Z,1.30
2017-09-14T15:10:44.344Z,1.30
2017-09-14T15:13:18.918Z,1.27
2017-09-14T15:15:54.165Z,1.07
2017-09-14T15:18:28.869Z,1.00
2017-09-14T15:21:03.363Z,1.47
2017-09-14T15:23:37.656Z,0.83
2017-09-14T15:26:12.057Z,1.10
2017-09-14T15:28:46.449Z,1.20
2017-09-14T15:31:20.785Z,1.20
2017-09-14T15:33:55.367Z,1.07
2017-09-14T15:36:30.461Z,1.33
2017-09-14T15:39:09.715Z,1.50
2017-09-14T15:41:44.948Z,0.90
2017-09-14T15:47:24.422Z,1.00
2017-09-14T15:50:04.636Z,1.17
2017-09-14T15:52:42.506Z,1.20
2017-09-14T15:55:17.010Z,1.50
2017-09-14T15:57:51.477Z,1.10
2017-09-14T16:00:26.019Z,1.87
2017-09-14T16:03:00.641Z,1.33
2017-09-14T16:05:35.294Z,1.07
2017-09-14T16:08:10.708Z,1.00
2017-09-14T16:10:45.188Z,0.80
2017-09-14T16:13:19.526Z,0.80
2017-09-14T16:15:54.100Z,1.10
2017-09-14T16:18:28.682Z,1.47
2017-09-14T16:21:03.268Z,0.97
2017-09-14T16:23:37.730Z,1.43
2017-09-14T16:26:12.287Z,1.10
2017-09-14T16:28:47.387Z,1.20
2017-09-14T16:31:22.023Z,0.90
2017-09-14T16:33:56.633Z,1.30
2017-09-14T16:36:31.203Z,1.37
2017-09-14T16:39:05.563Z,1.03
2017-09-14T16:41:40.018Z,1.20
2017-09-14T16:44:14.464Z,0.97
2017-09-14T16:46:49.126Z,1.27
2017-09-14T16:49:23.786Z,1.30
2017-09-14T16:51:58.375Z,1.40
2017-09-14T16:54:33.090Z,1.03
2017-09-14T16:57:07.575Z,1.17
2017-09-14T16:59:42.225Z,0.90
2017-09-14T17:02:16.810Z,1.03
2017-09-14T17:04:51.515Z,1.10
2017-09-14T17:07:25.967Z,1.00
2017-09-14T17:10:00.625Z,1.40
2017-09-14T17:12:35.110Z,1.70
2017-09-14T17:15:09.697Z,1.63
2017-09-14T17:17:44.234Z,1.73
2017-09-14T17:20:18.785Z,1.83
2017-09-14T17:22:53.375Z,1.63
2017-09-14T17:25:28.139Z,1.93
2017-09-14T17:28:02.858Z,2.23
2017-09-14T17:30:38.141Z,1.40
2017-09-14T17:33:12.787Z,1.23
2017-09-14T17:35:47.766Z,1.30
2017-09-14T17:38:23.132Z,1.07
2017-09-14T17:40:57.549Z,1.50
2017-09-14T17:43:32.190Z,0.70
2017-09-14T17:46:06.838Z,1.00
2017-09-14T17:48:41.622Z,1.47
2017-09-14T17:51:16.137Z,1.40
2017-09-14T17:53:50.664Z,1.10
2017-09-14T17:56:25.150Z,1.00
2017-09-14T17:58:59.662Z,1.20
2017-09-14T18:01:34.966Z,1.20
2017-09-14T18:04:09.568Z,0.90
2017-09-14T18:06:44.405Z,1.33
2017-09-14T18:09:19.807Z,1.00
2017-09-14T18:11:54.243Z,0.97
2017-09-14T18:14:28.693Z,0.83
2017-09-14T18:17:03.216Z,0.90
2017-09-14T18:19:38.022Z,1.00
2017-09-14T18:22:12.570Z,1.00
2017-09-14T18:24:47.027Z,0.87
2017-09-14T18:27:21.617Z,1.07
2017-09-14T18:29:56.199Z,1.00
2017-09-14T18:32:30.912Z,1.10
2017-09-14T18:35:07.566Z,1.17
2017-09-14T18:37:42.124Z,0.90
2017-09-14T18:40:16.566Z,1.53
2017-09-14T18:42:51.157Z,1.03
2017-09-14T18:45:26.017Z,1.30
2017-09-14T18:48:00.859Z,0.90
2017-09-14T18:50:35.400Z,1.10
2017-09-14T18:53:09.986Z,0.90
2017-09-14T18:55:44.780Z,0.90
2017-09-14T18:58:19.454Z,1.27
2017-09-14T19:00:54.051Z,1.40
2017-09-14T19:03:29.414Z,0.93
2017-09-14T19:06:03.928Z,0.93
2017-09-14T19:08:38.543Z,1.00
2017-09-14T19:11:13.184Z,1.10
2017-09-14T19:13:47.774Z,0.90
2017-09-14T19:16:22.482Z,1.03
2017-09-14T19:18:57.226Z,1.03
2017-09-14T19:21:31.833Z,1.10
2017-09-14T19:24:06.255Z,0.90
2017-09-14T19:26:40.835Z,0.97
2017-09-14T19:29:15.416Z,1.30
2017-09-14T19:31:50.239Z,0.87
2017-09-14T19:34:24.816Z,0.93
2017-09-14T19:36:59.424Z,0.87
2017-09-14T19:39:33.939Z,0.70
2017-09-14T19:42:08.635Z,1.20
2017-09-14T19:44:43.426Z,1.00
2017-09-14T19:47:18.039Z,0.73
2017-09-14T19:49:53.273Z,0.90
2017-09-14T19:52:28.009Z,0.77
2017-09-14T19:55:02.651Z,0.70
2017-09-14T19:57:37.254Z,1.00
2017-09-14T20:00:11.863Z,1.33
2017-09-14T20:02:46.491Z,0.70
2017-09-14T20:05:21.061Z,1.23
2017-09-14T20:07:55.709Z,1.20
2017-09-14T20:10:30.322Z,1.10
2017-09-14T20:13:05.114Z,0.70
2017-09-14T20:15:39.426Z,1.17
2017-09-14T20:18:13.999Z,0.80
2017-09-14T20:20:48.550Z,0.80
2017-09-14T20:23:23.096Z,1.20
2017-09-14T20:25:57.550Z,0.80
2017-09-14T20:28:32.244Z,1.07
2017-09-14T20:31:06.937Z,1.20
2017-09-14T20:33:42.310Z,1.03
2017-09-14T20:36:17.009Z,0.70
2017-09-14T20:38:51.786Z,1.00
2017-09-14T20:41:26.359Z,1.00
2017-09-14T20:44:00.827Z,0.70
2017-09-14T20:46:35.468Z,1.30
2017-09-14T20:49:10.137Z,0.93
2017-09-14T20:51:44.747Z,0.90
2017-09-14T20:54:19.429Z,0.80
2017-09-14T20:56:55.381Z,0.70
2017-09-14T20:59:29.902Z,1.20
2017-09-14T21:02:04.464Z,1.00
2017-09-14T21:04:38.950Z,1.10
2017-09-14T21:07:13.994Z,0.70
2017-09-14T21:09:48.580Z,0.80
2017-09-14T21:12:23.206Z,0.80
2017-09-14T21:14:57.688Z,1.00
2017-09-14T21:17:32.247Z,1.23
2017-09-14T21:20:10.127Z,0.90
2017-09-14T21:22:44.600Z,1.00
2017-09-14T21:25:19.394Z,1.47
2017-09-14T21:27:54.050Z,0.60
2017-09-14T21:30:28.571Z,0.83
2017-09-14T21:33:03.131Z,0.83
2017-09-14T21:35:37.618Z,1.00
2017-09-14T21:38:12.131Z,1.00
2017-09-14T21:40:46.671Z,0.77
2017-09-14T21:43:21.340Z,1.03
2017-09-14T21:45:56.162Z,0.80
2017-09-14T21:48:30.738Z,0.97
2017-09-14T21:51:05.262Z,1.00
2017-09-14T21:53:40.923Z,1.13
2017-09-14T21:56:15.631Z,0.70
2017-09-14T21:58:50.116Z,1.00
2017-09-14T22:01:24.723Z,1.00
2017-09-14T22:03:59.616Z,0.70
2017-09-14T22:06:34.270Z,0.90
2017-09-14T22:09:08.930Z,1.07
2017-09-14T22:11:43.430Z,1.00
2017-09-14T22:14:18.001Z,1.00
2017-09-14T22:16:52.675Z,0.80
2017-09-14T22:19:27.323Z,1.10
2017-09-14T22:22:02.927Z,1.20
2017-09-14T22:24:38.218Z,0.80
2017-09-14T22:27:12.843Z,1.03
2017-09-14T22:29:47.579Z,1.20
2017-09-14T22:32:22.315Z,1.00
2017-09-14T22:34:56.933Z,0.87
2017-09-14T22:37:31.585Z,0.90
2017-09-14T22:40:09.899Z,1.03
2017-09-14T22:42:44.543Z,0.80
2017-09-14T22:45:19.132Z,1.27
2017-09-14T22:47:53.622Z,0.87
2017-09-14T22:50:28.299Z,1.10
2017-09-14T22:53:02.927Z,1.17
2017-09-14T22:55:38.315Z,1.00
2017-09-14T22:58:12.934Z,1.00
2017-09-14T23:00:47.497Z,1.03
2017-09-14T23:03:22.138Z,0.90
2017-09-14T23:05:56.475Z,0.70
2017-09-14T23:08:31.168Z,0.90
2017-09-14T23:11:05.806Z,1.00
2017-09-14T23:13:41.231Z,0.90
2017-09-14T23:16:15.926Z,1.10
2017-09-14T23:18:50.695Z,0.90
2017-09-14T23:21:25.302Z,1.13
2017-09-14T23:23:59.719Z,0.80
2017-09-14T23:26:34.320Z,0.90
2017-09-14T23:29:08.787Z,1.00
2017-09-14T23:31:43.616Z,0.80
2017-09-14T23:34:18.487Z,0.90
2017-09-14T23:36:52.928Z,0.77
2017-09-14T23:39:27.639Z,1.13
2017-09-14T23:42:02.232Z,1.73
2017-09-14T23:44:36.864Z,1.20
2017-09-14T23:47:11.439Z,0.80
2017-09-14T23:49:46.047Z,0.97
2017-09-14T23:52:20.591Z,0.80
2017-09-14T23:54:55.056Z,0.83
2017-09-14T23:57:29.658Z,1.10
